Terminal Aerodrome Forecast
Issued by NWS

Current Version | Previous Version | Text Only | Print | Product List | Glossary Off
Versions: 1 2 3 4 5 6 7 8 9 10 11 12 13 14 15 16 17 18 19 20 21 22 23 24 25 26 27

428
FTUS41 KILN 301030 AAA
TAFLCK
TAF AMD
KLCK 301030Z 3011/0106 04008KT P6SM BKN012 OVC100
     FM301500 07008KT P6SM OVC050
     FM301800 11009G17KT 4SM -SHRA BR OVC025
     FM302200 15010KT 2SM -SHRA BR OVC012=

USA.gov is the U.S. government's official web portal to all federal, state and local government web resources and services.